sensor_id;sensor_type;location;lat;lon;timestamp;temperature;humidity
24664;DHT22;12791;50.992;13.788;2023-02-26T00:01:15;1.20;99.90
24664;DHT22;12791;50.992;13.788;2023-02-26T00:03:42;1.40;99.90
24664;DHT22;12791;50.992;13.788;2023-02-26T00:06:10;1.40;99.90
24664;DHT22;12791;50.992;13.788;2023-02-26T00:08:36;1.10;99.90
24664;DHT22;12791;50.992;13.788;2023-02-26T00:11:06;1.20;99.90
24664;DHT22;12791;50.992;13.788;2023-02-26T00:13:34;1.10;99.90
24664;DHT22;12791;50.992;13.788;2023-02-26T00:16:01;1.20;99.90
24664;DHT22;12791;50.992;13.788;2023-02-26T00:18:28;1.00;99.90
24664;DHT22;12791;50.992;13.788;2023-02-26T00:20:55;1.30;99.90
24664;DHT22;12791;50.992;13.788;2023-02-26T00:23:24;1.30;99.90
24664;DHT22;12791;50.992;13.788;2023-02-26T00:25:50;1.40;99.90
24664;DHT22;12791;50.992;13.788;2023-02-26T00:28:17;1.30;99.90
24664;DHT22;12791;50.992;13.788;2023-02-26T00:30:44;1.20;99.90
24664;DHT22;12791;50.992;13.788;2023-02-26T00:33:11;1.20;99.90
24664;DHT22;12791;50.992;13.788;2023-02-26T00:35:38;1.30;99.90
24664;DHT22;12791;50.992;13.788;2023-02-26T00:38:06;1.10;99.90
24664;DHT22;12791;50.992;13.788;2023-02-26T00:40:39;1.10;99.90
24664;DHT22;12791;50.992;13.788;2023-02-26T00:43:08;1.10;99.90
24664;DHT22;12791;50.992;13.788;2023-02-26T00:45:37;1.20;99.90
24664;DHT22;12791;50.992;13.788;2023-02-26T00:48:20;1.00;99.90
24664;DHT22;12791;50.992;13.788;2023-02-26T00:50:53;1.20;99.90
24664;DHT22;12791;50.992;13.788;2023-02-26T00:53:27;1.10;99.90
24664;DHT22;12791;50.992;13.788;2023-02-26T00:55:55;1.10;99.90
24664;DHT22;12791;50.992;13.788;2023-02-26T00:58:22;1.00;99.90
24664;DHT22;12791;50.992;13.788;2023-02-26T01:00:48;1.20;99.90
24664;DHT22;12791;50.992;13.788;2023-02-26T01:03:15;1.20;99.90
24664;DHT22;12791;50.992;13.788;2023-02-26T01:05:42;0.90;99.90
24664;DHT22;12791;50.992;13.788;2023-02-26T01:08:14;1.20;99.90
24664;DHT22;12791;50.992;13.788;2023-02-26T01:10:45;1.10;99.90
24664;DHT22;12791;50.992;13.788;2023-02-26T01:13:13;1.00;99.90
24664;DHT22;12791;50.992;13.788;2023-02-26T01:15:45;0.90;99.90
24664;DHT22;12791;50.992;13.788;2023-02-26T01:18:17;0.90;99.90
24664;DHT22;12791;50.992;13.788;2023-02-26T01:20:47;1.10;99.90
24664;DHT22;12791;50.992;13.788;2023-02-26T01:23:17;0.90;99.90
24664;DHT22;12791;50.992;13.788;2023-02-26T01:25:48;1.00;99.90
24664;DHT22;12791;50.992;13.788;2023-02-26T01:28:17;1.00;99.90
24664;DHT22;12791;50.992;13.788;2023-02-26T01:30:44;0.90;99.90
24664;DHT22;12791;50.992;13.788;2023-02-26T01:33:18;1.10;99.90
24664;DHT22;12791;50.992;13.788;2023-02-26T01:35:49;0.90;99.90
24664;DHT22;12791;50.992;13.788;2023-02-26T01:38:21;0.90;99.90
24664;DHT22;12791;50.992;13.788;2023-02-26T01:41:12;0.80;99.90
24664;DHT22;12791;50.992;13.788;2023-02-26T01:43:50;0.90;99.90
24664;DHT22;12791;50.992;13.788;2023-02-26T01:46:24;0.90;99.90
24664;DHT22;12791;50.992;13.788;2023-02-26T01:48:53;1.10;99.90
24664;DHT22;12791;50.992;13.788;2023-02-26T01:51:46;0.90;99.90
24664;DHT22;12791;50.992;13.788;2023-02-26T01:54:14;1.00;99.90
24664;DHT22;12791;50.992;13.788;2023-02-26T01:56:42;0.50;99.90
24664;DHT22;12791;50.992;13.788;2023-02-26T01:59:14;0.60;99.90
24664;DHT22;12791;50.992;13.788;2023-02-26T02:01:42;0.90;99.90
24664;DHT22;12791;50.992;13.788;2023-02-26T02:04:11;0.60;99.90
24664;DHT22;12791;50.992;13.788;2023-02-26T02:06:38;0.60;99.90
24664;DHT22;12791;50.992;13.788;2023-02-26T02:09:07;0.50;99.90
24664;DHT22;12791;50.992;13.788;2023-02-26T02:11:34;0.80;99.90
24664;DHT22;12791;50.992;13.788;2023-02-26T02:14:14;0.10;99.90
24664;DHT22;12791;50.992;13.788;2023-02-26T02:16:52;0.90;99.90
24664;DHT22;12791;50.992;13.788;2023-02-26T02:19:49;0.60;99.90
24664;DHT22;12791;50.992;13.788;2023-02-26T02:22:39;0.90;99.90
24664;DHT22;12791;50.992;13.788;2023-02-26T02:25:25;0.90;99.90
24664;DHT22;12791;50.992;13.788;2023-02-26T02:28:03;0.70;99.90
24664;DHT22;12791;50.992;13.788;2023-02-26T02:30:37;0.70;99.90
24664;DHT22;12791;50.992;13.788;2023-02-26T02:33:12;0.90;99.90
24664;DHT22;12791;50.992;13.788;2023-02-26T02:35:43;0.80;99.90
24664;DHT22;12791;50.992;13.788;2023-02-26T02:38:15;0.70;99.90
24664;DHT22;12791;50.992;13.788;2023-02-26T02:40:45;0.70;99.90
24664;DHT22;12791;50.992;13.788;2023-02-26T02:43:14;0.80;99.90
24664;DHT22;12791;50.992;13.788;2023-02-26T02:45:44;0.70;99.90
24664;DHT22;12791;50.992;13.788;2023-02-26T02:48:19;0.80;99.90
24664;DHT22;12791;50.992;13.788;2023-02-26T02:50:50;0.70;99.90
24664;DHT22;12791;50.992;13.788;2023-02-26T02:53:22;0.60;99.90
24664;DHT22;12791;50.992;13.788;2023-02-26T02:55:56;0.90;99.90
24664;DHT22;12791;50.992;13.788;2023-02-26T02:58:28;0.60;99.90
24664;DHT22;12791;50.992;13.788;2023-02-26T03:00:59;0.50;99.90
24664;DHT22;12791;50.992;13.788;2023-02-26T03:03:33;0.70;99.90
24664;DHT22;12791;50.992;13.788;2023-02-26T03:06:00;0.80;99.90
24664;DHT22;12791;50.992;13.788;2023-02-26T03:08:30;0.50;99.90
24664;DHT22;12791;50.992;13.788;2023-02-26T03:10:59;0.70;99.90
24664;DHT22;12791;50.992;13.788;2023-02-26T03:13:26;0.70;99.90
24664;DHT22;12791;50.992;13.788;2023-02-26T03:16:09;0.60;99.90
24664;DHT22;12791;50.992;13.788;2023-02-26T03:18:49;0.60;99.90
24664;DHT22;12791;50.992;13.788;2023-02-26T03:21:23;0.80;99.90
24664;DHT22;12791;50.992;13.788;2023-02-26T03:23:58;1.00;99.90
24664;DHT22;12791;50.992;13.788;2023-02-26T03:26:29;0.80;99.90
24664;DHT22;12791;50.992;13.788;2023-02-26T03:29:01;0.90;99.90
24664;DHT22;12791;50.992;13.788;2023-02-26T03:31:32;1.00;99.90
24664;DHT22;12791;50.992;13.788;2023-02-26T03:34:06;0.80;99.90
24664;DHT22;12791;50.992;13.788;2023-02-26T03:36:37;0.90;99.90
24664;DHT22;12791;50.992;13.788;2023-02-26T03:39:07;0.80;99.90
24664;DHT22;12791;50.992;13.788;2023-02-26T03:41:39;0.90;99.90
24664;DHT22;12791;50.992;13.788;2023-02-26T03:44:13;0.70;99.90
24664;DHT22;12791;50.992;13.788;2023-02-26T03:46:45;1.00;99.90
24664;DHT22;12791;50.992;13.788;2023-02-26T03:49:19;0.80;99.90
24664;DHT22;12791;50.992;13.788;2023-02-26T03:51:47;1.10;99.90
24664;DHT22;12791;50.992;13.788;2023-02-26T03:54:18;0.90;99.90
24664;DHT22;12791;50.992;13.788;2023-02-26T03:56:47;0.90;99.90
24664;DHT22;12791;50.992;13.788;2023-02-26T03:59:14;0.80;99.90
24664;DHT22;12791;50.992;13.788;2023-02-26T04:01:48;0.80;99.90
24664;DHT22;12791;50.992;13.788;2023-02-26T04:04:22;0.90;99.90
24664;DHT22;12791;50.992;13.788;2023-02-26T04:06:50;1.00;99.90
24664;DHT22;12791;50.992;13.788;2023-02-26T04:09:18;1.00;99.90
24664;DHT22;12791;50.992;13.788;2023-02-26T04:11:46;0.90;99.90
24664;DHT22;12791;50.992;13.788;2023-02-26T04:14:14;0.90;99.90
24664;DHT22;12791;50.992;13.788;2023-02-26T04:16:41;0.80;99.90
24664;DHT22;12791;50.992;13.788;2023-02-26T04:19:09;1.00;99.90
24664;DHT22;12791;50.992;13.788;2023-02-26T04:21:37;0.80;99.90
24664;DHT22;12791;50.992;13.788;2023-02-26T04:24:04;1.00;99.90
24664;DHT22;12791;50.992;13.788;2023-02-26T04:26:30;1.00;99.90
24664;DHT22;12791;50.992;13.788;2023-02-26T04:28:57;0.70;99.90
24664;DHT22;12791;50.992;13.788;2023-02-26T04:31:23;1.00;99.90
24664;DHT22;12791;50.992;13.788;2023-02-26T04:33:50;0.60;99.90
24664;DHT22;12791;50.992;13.788;2023-02-26T04:36:17;0.80;99.90
24664;DHT22;12791;50.992;13.788;2023-02-26T04:38:45;0.90;99.90
24664;DHT22;12791;50.992;13.788;2023-02-26T04:41:11;1.00;99.90
24664;DHT22;12791;50.992;13.788;2023-02-26T04:43:38;0.80;99.90
24664;DHT22;12791;50.992;13.788;2023-02-26T04:46:05;0.90;99.90
24664;DHT22;12791;50.992;13.788;2023-02-26T04:48:31;0.70;99.90
24664;DHT22;12791;50.992;13.788;2023-02-26T04:50:58;0.70;99.90
24664;DHT22;12791;50.992;13.788;2023-02-26T04:53:24;0.90;99.90
24664;DHT22;12791;50.992;13.788;2023-02-26T04:55:52;0.90;99.90
24664;DHT22;12791;50.992;13.788;2023-02-26T04:58:19;0.90;99.90
24664;DHT22;12791;50.992;13.788;2023-02-26T05:00:47;0.70;99.90
24664;DHT22;12791;50.992;13.788;2023-02-26T05:03:14;0.70;99.90
24664;DHT22;12791;50.992;13.788;2023-02-26T05:05:40;0.80;99.90
24664;DHT22;12791;50.992;13.788;2023-02-26T05:08:07;0.80;99.90
24664;DHT22;12791;50.992;13.788;2023-02-26T05:10:34;0.90;99.90
24664;DHT22;12791;50.992;13.788;2023-02-26T05:13:02;0.90;99.90
24664;DHT22;12791;50.992;13.788;2023-02-26T05:15:28;0.80;99.90
24664;DHT22;12791;50.992;13.788;2023-02-26T05:17:55;0.60;99.90
24664;DHT22;12791;50.992;13.788;2023-02-26T05:20:21;0.80;99.90
24664;DHT22;12791;50.992;13.788;2023-02-26T05:22:48;0.70;99.90
24664;DHT22;12791;50.992;13.788;2023-02-26T05:25:15;0.90;99.90
24664;DHT22;12791;50.992;13.788;2023-02-26T05:27:42;0.90;99.90
24664;DHT22;12791;50.992;13.788;2023-02-26T05:30:13;0.60;99.90
24664;DHT22;12791;50.992;13.788;2023-02-26T05:32:40;0.60;99.90
24664;DHT22;12791;50.992;13.788;2023-02-26T05:35:07;0.60;99.90
24664;DHT22;12791;50.992;13.788;2023-02-26T05:37:34;0.80;99.90
24664;DHT22;12791;50.992;13.788;2023-02-26T05:40:01;0.70;99.90
24664;DHT22;12791;50.992;13.788;2023-02-26T05:42:28;0.40;99.90
24664;DHT22;12791;50.992;13.788;2023-02-26T05:44:54;0.40;99.90
24664;DHT22;12791;50.992;13.788;2023-02-26T05:47:23;0.30;99.90
24664;DHT22;12791;50.992;13.788;2023-02-26T05:49:50;-0.10;99.90
24664;DHT22;12791;50.992;13.788;2023-02-26T05:52:16;0.60;99.90
24664;DHT22;12791;50.992;13.788;2023-02-26T05:54:43;0.40;99.90
24664;DHT22;12791;50.992;13.788;2023-02-26T05:57:09;0.60;99.90
24664;DHT22;12791;50.992;13.788;2023-02-26T05:59:36;0.60;99.90
24664;DHT22;12791;50.992;13.788;2023-02-26T06:02:03;0.50;99.90
24664;DHT22;12791;50.992;13.788;2023-02-26T06:04:31;0.50;99.90
24664;DHT22;12791;50.992;13.788;2023-02-26T06:06:58;0.70;99.90
24664;DHT22;12791;50.992;13.788;2023-02-26T06:09:24;0.90;99.90
24664;DHT22;12791;50.992;13.788;2023-02-26T06:11:51;0.60;99.90
24664;DHT22;12791;50.992;13.788;2023-02-26T06:14:18;0.50;99.90
24664;DHT22;12791;50.992;13.788;2023-02-26T06:16:44;0.60;99.90
24664;DHT22;12791;50.992;13.788;2023-02-26T06:19:11;0.50;99.90
24664;DHT22;12791;50.992;13.788;2023-02-26T06:21:39;0.80;99.90
24664;DHT22;12791;50.992;13.788;2023-02-26T06:24:06;0.60;99.90
24664;DHT22;12791;50.992;13.788;2023-02-26T06:26:33;0.80;99.90
24664;DHT22;12791;50.992;13.788;2023-02-26T06:28:59;0.60;99.90
24664;DHT22;12791;50.992;13.788;2023-02-26T06:31:26;0.60;99.90
24664;DHT22;12791;50.992;13.788;2023-02-26T06:33:53;0.70;99.90
24664;DHT22;12791;50.992;13.788;2023-02-26T06:36:19;1.00;99.90
24664;DHT22;12791;50.992;13.788;2023-02-26T06:38:47;0.70;99.90
24664;DHT22;12791;50.992;13.788;2023-02-26T06:41:14;1.00;99.90
24664;DHT22;12791;50.992;13.788;2023-02-26T06:43:40;0.90;99.90
24664;DHT22;12791;50.992;13.788;2023-02-26T06:46:07;0.80;99.90
24664;DHT22;12791;50.992;13.788;2023-02-26T06:48:34;0.90;99.90
24664;DHT22;12791;50.992;13.788;2023-02-26T06:51:00;0.70;99.90
24664;DHT22;12791;50.992;13.788;2023-02-26T06:53:27;0.50;99.90
24664;DHT22;12791;50.992;13.788;2023-02-26T06:55:55;0.80;99.90
24664;DHT22;12791;50.992;13.788;2023-02-26T06:58:22;0.70;99.90
24664;DHT22;12791;50.992;13.788;2023-02-26T07:00:49;0.80;99.90
24664;DHT22;12791;50.992;13.788;2023-02-26T07:03:17;0.70;99.90
24664;DHT22;12791;50.992;13.788;2023-02-26T07:05:44;0.40;99.90
24664;DHT22;12791;50.992;13.788;2023-02-26T07:08:11;0.40;99.90
24664;DHT22;12791;50.992;13.788;2023-02-26T07:10:39;0.40;99.90
24664;DHT22;12791;50.992;13.788;2023-02-26T07:13:08;0.80;99.90
24664;DHT22;12791;50.992;13.788;2023-02-26T07:15:34;0.60;99.90
24664;DHT22;12791;50.992;13.788;2023-02-26T07:18:01;0.50;99.90
24664;DHT22;12791;50.992;13.788;2023-02-26T07:20:28;0.70;99.90
24664;DHT22;12791;50.992;13.788;2023-02-26T07:22:55;0.50;99.90
24664;DHT22;12791;50.992;13.788;2023-02-26T07:25:21;0.50;99.90
24664;DHT22;12791;50.992;13.788;2023-02-26T07:27:48;0.70;99.90
24664;DHT22;12791;50.992;13.788;2023-02-26T07:30:17;0.60;99.90
24664;DHT22;12791;50.992;13.788;2023-02-26T07:32:43;0.70;99.90
24664;DHT22;12791;50.992;13.788;2023-02-26T07:35:10;0.90;99.90
24664;DHT22;12791;50.992;13.788;2023-02-26T07:37:37;0.10;99.90
24664;DHT22;12791;50.992;13.788;2023-02-26T07:40:05;0.70;99.90
24664;DHT22;12791;50.992;13.788;2023-02-26T07:42:31;0.80;99.90
24664;DHT22;12791;50.992;13.788;2023-02-26T07:44:58;0.80;99.90
24664;DHT22;12791;50.992;13.788;2023-02-26T07:47:26;0.60;99.90
24664;DHT22;12791;50.992;13.788;2023-02-26T07:49:54;0.70;99.90
24664;DHT22;12791;50.992;13.788;2023-02-26T07:52:21;0.70;99.90
24664;DHT22;12791;50.992;13.788;2023-02-26T07:54:48;0.90;99.90
24664;DHT22;12791;50.992;13.788;2023-02-26T07:57:14;0.80;99.90
24664;DHT22;12791;50.992;13.788;2023-02-26T07:59:41;1.00;99.90
24664;DHT22;12791;50.992;13.788;2023-02-26T08:02:08;0.70;99.90
24664;DHT22;12791;50.992;13.788;2023-02-26T08:04:36;0.80;99.90
24664;DHT22;12791;50.992;13.788;2023-02-26T08:07:03;0.80;99.90
24664;DHT22;12791;50.992;13.788;2023-02-26T08:09:30;0.90;99.90
24664;DHT22;12791;50.992;13.788;2023-02-26T08:11:56;0.70;99.90
24664;DHT22;12791;50.992;13.788;2023-02-26T08:14:23;1.00;99.90
24664;DHT22;12791;50.992;13.788;2023-02-26T08:16:50;1.10;99.90
24664;DHT22;12791;50.992;13.788;2023-02-26T08:19:17;1.20;99.90
24664;DHT22;12791;50.992;13.788;2023-02-26T08:21:45;0.80;99.90
24664;DHT22;12791;50.992;13.788;2023-02-26T08:24:12;1.00;99.90
24664;DHT22;12791;50.992;13.788;2023-02-26T08:26:39;0.90;99.90
24664;DHT22;12791;50.992;13.788;2023-02-26T08:29:06;1.00;99.90
24664;DHT22;12791;50.992;13.788;2023-02-26T08:31:33;1.10;99.90
24664;DHT22;12791;50.992;13.788;2023-02-26T08:34:00;1.00;99.90
24664;DHT22;12791;50.992;13.788;2023-02-26T08:36:27;0.70;99.90
24664;DHT22;12791;50.992;13.788;2023-02-26T08:38:55;1.00;99.90
24664;DHT22;12791;50.992;13.788;2023-02-26T08:41:21;1.10;99.90
24664;DHT22;12791;50.992;13.788;2023-02-26T08:43:48;1.20;99.90
24664;DHT22;12791;50.992;13.788;2023-02-26T08:46:15;1.10;99.90
24664;DHT22;12791;50.992;13.788;2023-02-26T08:48:42;0.50;99.90
24664;DHT22;12791;50.992;13.788;2023-02-26T08:51:09;1.10;99.90
24664;DHT22;12791;50.992;13.788;2023-02-26T08:53:35;1.30;99.90
24664;DHT22;12791;50.992;13.788;2023-02-26T08:56:06;1.10;99.90
24664;DHT22;12791;50.992;13.788;2023-02-26T08:58:32;1.20;99.90
24664;DHT22;12791;50.992;13.788;2023-02-26T09:00:59;1.00;99.90
24664;DHT22;12791;50.992;13.788;2023-02-26T09:03:25;1.00;99.90
24664;DHT22;12791;50.992;13.788;2023-02-26T09:05:52;1.00;99.90
24664;DHT22;12791;50.992;13.788;2023-02-26T09:08:19;1.40;99.90
24664;DHT22;12791;50.992;13.788;2023-02-26T09:10:46;1.40;99.90
24664;DHT22;12791;50.992;13.788;2023-02-26T09:13:14;1.30;99.90
24664;DHT22;12791;50.992;13.788;2023-02-26T09:15:41;1.50;99.90
24664;DHT22;12791;50.992;13.788;2023-02-26T09:18:08;1.40;99.90
24664;DHT22;12791;50.992;13.788;2023-02-26T09:20:39;1.40;99.90
24664;DHT22;12791;50.992;13.788;2023-02-26T09:23:06;1.60;99.90
24664;DHT22;12791;50.992;13.788;2023-02-26T09:25:33;1.30;99.90
24664;DHT22;12791;50.992;13.788;2023-02-26T09:27:59;1.40;99.90
24664;DHT22;12791;50.992;13.788;2023-02-26T09:30:27;1.40;99.90
24664;DHT22;12791;50.992;13.788;2023-02-26T09:32:54;1.50;99.90
24664;DHT22;12791;50.992;13.788;2023-02-26T09:35:21;1.30;99.90
24664;DHT22;12791;50.992;13.788;2023-02-26T09:37:47;1.30;99.90
24664;DHT22;12791;50.992;13.788;2023-02-26T09:40:25;1.50;99.90
24664;DHT22;12791;50.992;13.788;2023-02-26T09:43:05;1.40;99.90
24664;DHT22;12791;50.992;13.788;2023-02-26T09:45:37;1.50;99.90
24664;DHT22;12791;50.992;13.788;2023-02-26T09:48:05;1.40;99.90
24664;DHT22;12791;50.992;13.788;2023-02-26T09:50:38;1.50;99.90
24664;DHT22;12791;50.992;13.788;2023-02-26T09:53:11;1.30;99.90
24664;DHT22;12791;50.992;13.788;2023-02-26T09:55:41;1.40;99.90
24664;DHT22;12791;50.992;13.788;2023-02-26T09:58:15;1.60;99.90
24664;DHT22;12791;50.992;13.788;2023-02-26T10:00:51;1.40;99.90
24664;DHT22;12791;50.992;13.788;2023-02-26T10:03:26;1.80;99.90
24664;DHT22;12791;50.992;13.788;2023-02-26T10:06:13;1.60;99.90
24664;DHT22;12791;50.992;13.788;2023-02-26T10:08:57;1.80;99.90
24664;DHT22;12791;50.992;13.788;2023-02-26T10:11:28;1.70;99.90
24664;DHT22;12791;50.992;13.788;2023-02-26T10:14:00;1.70;99.90
24664;DHT22;12791;50.992;13.788;2023-02-26T10:16:36;1.70;99.90
24664;DHT22;12791;50.992;13.788;2023-02-26T10:19:06;1.80;99.90
24664;DHT22;12791;50.992;13.788;2023-02-26T10:21:38;1.80;99.90
24664;DHT22;12791;50.992;13.788;2023-02-26T10:24:10;1.60;99.90
24664;DHT22;12791;50.992;13.788;2023-02-26T10:26:40;1.60;99.90
24664;DHT22;12791;50.992;13.788;2023-02-26T10:29:16;1.50;99.90
24664;DHT22;12791;50.992;13.788;2023-02-26T10:31:55;1.80;99.90
24664;DHT22;12791;50.992;13.788;2023-02-26T10:34:27;1.40;99.90
24664;DHT22;12791;50.992;13.788;2023-02-26T10:37:03;1.60;99.90
24664;DHT22;12791;50.992;13.788;2023-02-26T10:39:37;1.70;99.90
24664;DHT22;12791;50.992;13.788;2023-02-26T10:42:10;1.70;99.90
24664;DHT22;12791;50.992;13.788;2023-02-26T10:44:43;1.70;99.90
24664;DHT22;12791;50.992;13.788;2023-02-26T10:47:21;1.80;99.90
24664;DHT22;12791;50.992;13.788;2023-02-26T10:49:52;2.00;99.90
24664;DHT22;12791;50.992;13.788;2023-02-26T10:52:23;1.80;99.90
24664;DHT22;12791;50.992;13.788;2023-02-26T10:55:05;1.90;99.90
24664;DHT22;12791;50.992;13.788;2023-02-26T10:57:35;2.20;99.90
24664;DHT22;12791;50.992;13.788;2023-02-26T11:00:05;1.80;99.90
24664;DHT22;12791;50.992;13.788;2023-02-26T11:02:37;1.90;99.90
24664;DHT22;12791;50.992;13.788;2023-02-26T11:05:07;2.00;99.90
24664;DHT22;12791;50.992;13.788;2023-02-26T11:07:39;1.90;99.90
24664;DHT22;12791;50.992;13.788;2023-02-26T11:10:13;1.80;99.90
24664;DHT22;12791;50.992;13.788;2023-02-26T11:12:41;2.00;99.90
24664;DHT22;12791;50.992;13.788;2023-02-26T11:15:12;2.20;99.90
24664;DHT22;12791;50.992;13.788;2023-02-26T11:17:40;2.50;99.90
24664;DHT22;12791;50.992;13.788;2023-02-26T11:20:16;2.30;99.90
24664;DHT22;12791;50.992;13.788;2023-02-26T11:22:46;2.20;99.90
24664;DHT22;12791;50.992;13.788;2023-02-26T11:25:18;2.20;99.90
24664;DHT22;12791;50.992;13.788;2023-02-26T11:27:47;2.30;99.90
24664;DHT22;12791;50.992;13.788;2023-02-26T11:30:15;2.30;99.90
24664;DHT22;12791;50.992;13.788;2023-02-26T11:32:45;2.20;99.90
24664;DHT22;12791;50.992;13.788;2023-02-26T11:35:17;2.10;99.90
24664;DHT22;12791;50.992;13.788;2023-02-26T11:37:47;2.10;99.90
24664;DHT22;12791;50.992;13.788;2023-02-26T11:40:17;2.10;99.90
24664;DHT22;12791;50.992;13.788;2023-02-26T11:42:48;2.10;99.90
24664;DHT22;12791;50.992;13.788;2023-02-26T11:45:17;2.10;99.90
24664;DHT22;12791;50.992;13.788;2023-02-26T11:47:47;2.10;99.90
24664;DHT22;12791;50.992;13.788;2023-02-26T11:50:19;2.30;99.90
24664;DHT22;12791;50.992;13.788;2023-02-26T11:52:53;2.10;99.90
24664;DHT22;12791;50.992;13.788;2023-02-26T11:55:26;2.20;99.90
24664;DHT22;12791;50.992;13.788;2023-02-26T11:57:53;2.20;99.90
24664;DHT22;12791;50.992;13.788;2023-02-26T12:00:24;2.20;99.90
24664;DHT22;12791;50.992;13.788;2023-02-26T12:02:59;2.20;99.90
24664;DHT22;12791;50.992;13.788;2023-02-26T12:05:26;2.40;99.90
24664;DHT22;12791;50.992;13.788;2023-02-26T12:07:53;2.40;99.90
24664;DHT22;12791;50.992;13.788;2023-02-26T12:10:24;2.10;99.90
24664;DHT22;12791;50.992;13.788;2023-02-26T12:13:05;2.30;99.90
24664;DHT22;12791;50.992;13.788;2023-02-26T12:15:41;2.30;99.90
24664;DHT22;12791;50.992;13.788;2023-02-26T12:18:29;2.20;99.90
24664;DHT22;12791;50.992;13.788;2023-02-26T12:21:10;2.40;99.90
24664;DHT22;12791;50.992;13.788;2023-02-26T12:24:25;2.20;99.90
24664;DHT22;12791;50.992;13.788;2023-02-26T12:26:58;2.40;99.90
24664;DHT22;12791;50.992;13.788;2023-02-26T12:29:49;2.40;99.90
24664;DHT22;12791;50.992;13.788;2023-02-26T12:32:31;2.40;99.90
24664;DHT22;12791;50.992;13.788;2023-02-26T12:35:26;2.30;99.90
24664;DHT22;12791;50.992;13.788;2023-02-26T12:38:13;2.30;99.90
24664;DHT22;12791;50.992;13.788;2023-02-26T12:41:08;2.30;99.90
24664;DHT22;12791;50.992;13.788;2023-02-26T12:43:43;2.30;99.90
24664;DHT22;12791;50.992;13.788;2023-02-26T12:46:18;2.40;99.90
24664;DHT22;12791;50.992;13.788;2023-02-26T12:49:20;2.30;99.90
24664;DHT22;12791;50.992;13.788;2023-02-26T12:52:09;2.30;99.90
24664;DHT22;12791;50.992;13.788;2023-02-26T12:54:57;2.40;99.90
24664;DHT22;12791;50.992;13.788;2023-02-26T12:57:57;2.50;99.90
24664;DHT22;12791;50.992;13.788;2023-02-26T13:00:45;2.40;99.90
24664;DHT22;12791;50.992;13.788;2023-02-26T13:03:42;2.40;99.90
24664;DHT22;12791;50.992;13.788;2023-02-26T13:06:39;2.60;99.90
24664;DHT22;12791;50.992;13.788;2023-02-26T13:09:19;2.30;99.90
24664;DHT22;12791;50.992;13.788;2023-02-26T13:11:54;2.50;99.90
24664;DHT22;12791;50.992;13.788;2023-02-26T13:14:34;2.60;99.90
24664;DHT22;12791;50.992;13.788;2023-02-26T13:17:08;2.20;99.90
24664;DHT22;12791;50.992;13.788;2023-02-26T13:19:41;2.30;99.90
24664;DHT22;12791;50.992;13.788;2023-02-26T13:22:16;2.20;99.90
24664;DHT22;12791;50.992;13.788;2023-02-26T13:24:51;2.20;99.90
24664;DHT22;12791;50.992;13.788;2023-02-26T13:27:19;2.30;99.90
24664;DHT22;12791;50.992;13.788;2023-02-26T13:29:48;2.20;99.90
24664;DHT22;12791;50.992;13.788;2023-02-26T13:32:18;2.30;99.90
24664;DHT22;12791;50.992;13.788;2023-02-26T13:34:51;2.20;99.90
24664;DHT22;12791;50.992;13.788;2023-02-26T13:37:22;2.20;99.90
24664;DHT22;12791;50.992;13.788;2023-02-26T13:39:57;2.30;99.90
24664;DHT22;12791;50.992;13.788;2023-02-26T13:42:36;2.20;99.90
24664;DHT22;12791;50.992;13.788;2023-02-26T13:45:20;2.30;99.90
24664;DHT22;12791;50.992;13.788;2023-02-26T13:47:57;2.30;99.90
24664;DHT22;12791;50.992;13.788;2023-02-26T13:50:33;2.20;99.90
24664;DHT22;12791;50.992;13.788;2023-02-26T13:55:54;2.40;99.90
24664;DHT22;12791;50.992;13.788;2023-02-26T13:58:35;2.40;99.90
24664;DHT22;12791;50.992;13.788;2023-02-26T14:01:07;2.50;99.90
24664;DHT22;12791;50.992;13.788;2023-02-26T14:03:35;2.50;99.90
24664;DHT22;12791;50.992;13.788;2023-02-26T14:09:30;2.20;99.90
24664;DHT22;12791;50.992;13.788;2023-02-26T14:12:02;2.10;99.90
24664;DHT22;12791;50.992;13.788;2023-02-26T14:14:40;1.60;99.90
24664;DHT22;12791;50.992;13.788;2023-02-26T14:17:28;1.70;99.90
24664;DHT22;12791;50.992;13.788;2023-02-26T14:20:29;1.50;99.90
24664;DHT22;12791;50.992;13.788;2023-02-26T14:23:12;1.60;99.90
24664;DHT22;12791;50.992;13.788;2023-02-26T14:25:47;1.60;99.90
24664;DHT22;12791;50.992;13.788;2023-02-26T14:28:34;1.60;99.90
24664;DHT22;12791;50.992;13.788;2023-02-26T14:31:12;1.90;99.90
24664;DHT22;12791;50.992;13.788;2023-02-26T14:33:43;2.00;99.90
24664;DHT22;12791;50.992;13.788;2023-02-26T14:36:17;1.80;99.90
24664;DHT22;12791;50.992;13.788;2023-02-26T14:38:44;2.00;99.90
24664;DHT22;12791;50.992;13.788;2023-02-26T14:41:22;1.90;99.90
24664;DHT22;12791;50.992;13.788;2023-02-26T14:43:57;2.00;99.90
24664;DHT22;12791;50.992;13.788;2023-02-26T14:46:24;2.40;99.90
24664;DHT22;12791;50.992;13.788;2023-02-26T14:48:51;2.10;99.90
24664;DHT22;12791;50.992;13.788;2023-02-26T14:51:23;2.30;99.90
24664;DHT22;12791;50.992;13.788;2023-02-26T14:54:06;2.30;99.90
24664;DHT22;12791;50.992;13.788;2023-02-26T14:56:49;2.20;99.90
24664;DHT22;12791;50.992;13.788;2023-02-26T14:59:44;2.30;99.90
24664;DHT22;12791;50.992;13.788;2023-02-26T15:02:20;2.50;99.90
24664;DHT22;12791;50.992;13.788;2023-02-26T15:05:10;2.50;99.90
24664;DHT22;12791;50.992;13.788;2023-02-26T15:07:47;2.70;99.90
24664;DHT22;12791;50.992;13.788;2023-02-26T15:10:27;2.60;99.90
24664;DHT22;12791;50.992;13.788;2023-02-26T15:13:12;2.50;99.90
24664;DHT22;12791;50.992;13.788;2023-02-26T15:15:52;2.60;99.90
24664;DHT22;12791;50.992;13.788;2023-02-26T15:18:44;2.10;99.90
24664;DHT22;12791;50.992;13.788;2023-02-26T15:21:16;1.50;99.90
24664;DHT22;12791;50.992;13.788;2023-02-26T15:23:49;1.20;99.90
24664;DHT22;12791;50.992;13.788;2023-02-26T15:26:20;1.10;99.90
24664;DHT22;12791;50.992;13.788;2023-02-26T15:28:48;1.10;99.90
24664;DHT22;12791;50.992;13.788;2023-02-26T15:31:19;1.10;99.90
24664;DHT22;12791;50.992;13.788;2023-02-26T15:33:47;1.10;99.90
24664;DHT22;12791;50.992;13.788;2023-02-26T15:36:17;1.10;99.90
24664;DHT22;12791;50.992;13.788;2023-02-26T15:38:48;1.00;99.90
24664;DHT22;12791;50.992;13.788;2023-02-26T15:41:16;1.30;99.90
24664;DHT22;12791;50.992;13.788;2023-02-26T15:43:46;1.00;99.90
24664;DHT22;12791;50.992;13.788;2023-02-26T15:46:15;1.30;99.90
24664;DHT22;12791;50.992;13.788;2023-02-26T15:48:43;1.30;99.90
24664;DHT22;12791;50.992;13.788;2023-02-26T15:51:12;1.40;99.90
24664;DHT22;12791;50.992;13.788;2023-02-26T15:53:42;1.40;99.90
24664;DHT22;12791;50.992;13.788;2023-02-26T15:56:12;1.50;99.90
24664;DHT22;12791;50.992;13.788;2023-02-26T15:58:45;1.70;99.90
24664;DHT22;12791;50.992;13.788;2023-02-26T16:01:18;1.30;99.90
24664;DHT22;12791;50.992;13.788;2023-02-26T16:03:46;1.60;99.90